Time;durP1;ratioP1;P1;durP2;ratioP2;P2;SDS_P1;SDS_P2;PMS_P1;PMS_P2;Temp;Humidity;BMP_temperature;BMP_pressure;BME280_temperature;BME280_humidity;BME280_pressure;Samples;Min_cycle;Max_cycle;Signal;HPM_P1;HPM_P2
2022/11/11 00:01:21;;;;;;;24.70;16.10;;;;;;;8.14;89.16;101424.58;125053;1302;98768;-78
2022/11/11 00:04:45;;;;;;;21.90;15.80;;;;;;;8.21;89.09;101420.89;125106;1297;98026;-78
2022/11/11 00:08:10;;;;;;;22.70;13.90;;;;;;;8.25;89.08;101416.32;125160;1290;98122;-78
2022/11/11 00:11:34;;;;;;;20.80;12.50;;;;;;;8.29;89.03;101418.96;125223;1297;98073;-80
2022/11/11 00:14:58;;;;;;;24.80;14.30;;;;;;;8.34;89.05;101416.98;125170;1297;99182;-79
2022/11/11 00:25:45;;;;;;;;;;;;;;;8.54;89.11;101422.98;125249;1308;98117;-80
2022/11/11 00:29:08;;;;;;;;;;;;;;;8.57;89.03;101421.04;125278;1295;98038;-79
2022/11/11 00:32:32;;;;;;;;;;;;;;;8.58;89.00;101420.25;125137;1296;98056;-79
2022/11/11 00:35:56;;;;;;;18.40;12.30;;;;;;;8.58;89.16;101425.04;125195;1293;98179;-78
2022/11/11 00:39:20;;;;;;;22.10;12.00;;;;;;;8.56;89.06;101415.91;125191;1309;98776;-80
2022/11/11 00:42:45;;;;;;;18.00;10.90;;;;;;;8.56;89.14;101411.54;125090;1297;98076;-79
2022/11/11 00:53:34;;;;;;;19.60;12.70;;;;;;;8.68;88.88;101407.51;125388;1299;97987;-79
2022/11/11 00:56:58;;;;;;;20.70;12.90;;;;;;;8.70;89.05;101398.48;125089;1297;99183;-78
2022/11/11 01:00:23;;;;;;;19.30;11.30;;;;;;;8.71;88.89;101402.86;125134;1303;98120;-79
2022/11/11 01:03:47;;;;;;;18.00;10.50;;;;;;;8.69;89.01;101400.65;125088;1293;98530;-78
2022/11/11 01:07:12;;;;;;;21.00;12.30;;;;;;;8.72;88.86;101405.56;125312;1297;99275;-80
2022/11/11 01:10:42;;;;;;;19.70;12.20;;;;;;;8.78;88.95;101406.38;125438;1297;98004;-80
2022/11/11 01:14:06;;;;;;;19.50;12.60;;;;;;;8.79;88.78;101403.77;125440;1292;98552;-80
2022/11/11 01:17:31;;;;;;;18.70;11.90;;;;;;;8.75;88.73;101403.56;125261;1289;98030;-78
2022/11/11 01:21:03;;;;;;;21.30;12.80;;;;;;;8.68;88.60;101400.02;125080;1303;99310;-78
2022/11/11 01:24:28;;;;;;;16.00;10.50;;;;;;;8.60;88.78;101406.44;125052;1297;99161;-78
2022/11/11 01:27:52;;;;;;;17.30;10.50;;;;;;;8.57;88.79;101407.76;125142;1303;98202;-78
2022/11/11 01:31:18;;;;;;;22.90;11.70;;;;;;;8.54;88.60;101403.46;125148;1295;98095;-79
2022/11/11 01:34:40;;;;;;;;;;;;;;;8.53;88.63;101403.20;125076;1302;98037;-77
2022/11/11 01:38:05;;;;;;;18.80;11.70;;;;;;;8.50;88.55;101403.63;125126;1302;98659;-79
2022/11/11 01:41:35;;;;;;;18.90;12.20;;;;;;;8.44;88.37;101400.52;125194;1312;98045;-78
2022/11/11 01:45:00;;;;;;;16.90;11.40;;;;;;;8.35;88.26;101403.98;125141;1297;98042;-78
2022/11/11 01:52:19;;;;;;;18.90;10.70;;;;;;;8.07;88.37;101404.35;125238;1297;98777;-78
2022/11/11 01:55:43;;;;;;;19.20;10.10;;;;;;;7.95;88.42;101398.11;125111;1303;99199;-78
2022/11/11 01:59:12;;;;;;;21.00;12.40;;;;;;;7.90;88.28;101394.58;125131;1312;99159;-78
2022/11/11 02:02:41;;;;;;;19.10;12.60;;;;;;;7.88;88.39;101391.03;125146;1296;99166;-79
2022/11/11 02:06:06;;;;;;;21.70;13.70;;;;;;;7.86;88.50;101395.88;125157;1292;98034;-78
2022/11/11 02:09:31;;;;;;;21.30;13.30;;;;;;;7.85;88.55;101391.73;125165;1296;99172;-78
2022/11/11 02:16:38;;;;;;;20.60;11.60;;;;;;;7.77;88.68;101387.65;125258;1303;99169;-80
2022/11/11 02:20:04;;;;;;;19.60;11.40;;;;;;;7.75;88.64;101393.11;125131;1292;98797;-79
2022/11/11 02:23:35;;;;;;;22.60;12.80;;;;;;;7.74;88.52;101396.03;125304;1290;99147;-80
2022/11/11 02:27:01;;;;;;;24.50;15.00;;;;;;;7.76;88.62;101395.03;125436;1297;98097;-79
2022/11/11 02:30:26;;;;;;;24.50;13.30;;;;;;;7.77;88.84;101393.48;125317;1299;98044;-80
2022/11/11 02:33:50;;;;;;;24.60;13.20;;;;;;;7.76;88.65;101397.33;125181;1302;99053;-79
2022/11/11 02:37:22;;;;;;;23.00;14.10;;;;;;;7.73;88.72;101399.16;125356;1297;98030;-79
2022/11/11 02:44:25;;;;;;;21.80;11.80;;;;;;;7.64;88.79;101408.77;125040;1296;136509;-79
2022/11/11 02:47:49;;;;;;;21.90;13.20;;;;;;;7.64;88.87;101412.64;125308;1297;98004;-81
2022/11/11 02:51:13;;;;;;;21.00;13.30;;;;;;;7.67;88.78;101411.05;125463;1303;99166;-80
2022/11/11 02:54:38;;;;;;;19.50;11.50;;;;;;;7.67;88.92;101405.34;125437;1296;99183;-80
2022/11/11 02:58:03;;;;;;;20.60;13.40;;;;;;;7.67;88.45;101408.40;125229;1290;98071;-81
2022/11/11 03:01:27;;;;;;;20.20;13.00;;;;;;;7.63;88.51;101407.59;125390;1295;99208;-81
2022/11/11 03:04:51;;;;;;;20.70;10.90;;;;;;;7.58;88.51;101405.45;125279;1302;99163;-80
2022/11/11 03:08:16;;;;;;;18.60;10.90;;;;;;;7.54;88.61;101408.05;125356;1297;98033;-81
2022/11/11 03:11:40;;;;;;;19.40;11.60;;;;;;;7.52;88.83;101404.27;125423;1302;98897;-80
2022/11/11 03:15:06;;;;;;;20.30;12.40;;;;;;;7.54;88.58;101404.50;125374;1289;98665;-81
2022/11/11 03:18:30;;;;;;;19.20;12.30;;;;;;;7.56;88.77;101402.27;125281;1313;99043;-78
2022/11/11 03:21:54;;;;;;;20.30;12.30;;;;;;;7.57;88.65;101408.53;125401;1297;99169;-81
2022/11/11 03:29:00;;;;;;;19.30;11.50;;;;;;;7.59;88.93;101415.52;125302;1303;98132;-80
2022/11/11 03:32:25;;;;;;;18.80;10.60;;;;;;;7.61;88.85;101416.02;125218;1303;98071;-78
2022/11/11 03:35:49;;;;;;;20.40;11.80;;;;;;;7.65;89.04;101417.34;125176;1297;99114;-78
2022/11/11 03:39:13;;;;;;;18.50;11.90;;;;;;;7.71;89.09;101426.85;125298;1296;99190;-79
2022/11/11 03:42:38;;;;;;;19.20;12.10;;;;;;;7.77;89.05;101425.23;125060;1297;98104;-79
2022/11/11 03:46:04;;;;;;;18.60;11.00;;;;;;;7.82;89.03;101420.82;125143;1303;98008;-80
2022/11/11 03:49:28;;;;;;;18.10;12.00;;;;;;;7.83;88.98;101423.73;125063;1297;98890;-78
2022/11/11 03:52:53;;;;;;;15.80;9.90;;;;;;;7.82;88.96;101432.15;125239;1292;99198;-78
2022/11/11 03:56:17;;;;;;;17.40;10.10;;;;;;;7.82;89.11;101439.91;125163;1303;98772;-79
2022/11/11 03:59:41;;;;;;;18.50;10.50;;;;;;;7.87;89.21;101444.75;125159;1296;99142;-79
2022/11/11 04:10:32;;;;;;;17.50;11.80;;;;;;;7.95;88.91;101442.23;125141;1297;98791;-80
2022/11/11 04:17:42;;;;;;;17.00;9.10;;;;;;;7.82;88.85;101449.49;125232;1304;99162;-79
2022/11/11 04:35:56;;;;;;;16.00;10.30;;;;;;;7.96;89.33;101464.88;125138;1296;98061;-79
2022/11/11 04:43:02;;;;;;;14.90;9.20;;;;;;;7.99;89.51;101473.67;125119;1303;98109;-79
2022/11/11 04:46:27;;;;;;;15.90;8.80;;;;;;;8.01;89.48;101472.45;125042;1304;98776;-79
2022/11/11 04:49:51;;;;;;;15.80;9.40;;;;;;;8.06;89.56;101473.02;125215;1303;98083;-79
2022/11/11 04:53:16;;;;;;;17.30;9.70;;;;;;;8.11;89.49;101470.52;125163;1300;99310;-79
2022/11/11 04:56:49;;;;;;;15.30;9.60;;;;;;;8.17;89.27;101471.73;125320;1293;98160;-79
2022/11/11 05:00:16;;;;;;;16.40;9.90;;;;;;;8.21;89.36;101463.60;125122;1305;98033;-78
2022/11/11 05:03:41;;;;;;;17.60;10.40;;;;;;;8.24;89.25;101461.46;125148;1303;98653;-80
2022/11/11 05:10:47;;;;;;;13.40;8.80;;;;;;;8.22;89.20;101460.39;125316;1293;98448;-81
2022/11/11 05:21:34;;;;;;;105.90;40.20;;;;;;;8.38;89.34;101471.85;125100;1297;98898;-79
2022/11/11 05:28:40;;;;;;;229.50;136.40;;;;;;;8.45;89.21;101453.83;125150;1300;98090;-78
2022/11/11 05:32:07;;;;;;;56.40;33.50;;;;;;;8.45;89.26;101454.34;125214;1298;98062;-78
2022/11/11 05:35:31;;;;;;;18.50;12.80;;;;;;;8.46;89.35;101452.70;125165;1302;99168;-76
2022/11/11 05:38:55;;;;;;;29.40;15.90;;;;;;;8.50;89.28;101460.56;125158;1303;98023;-78
2022/11/11 05:42:20;;;;;;;16.30;10.30;;;;;;;8.55;89.41;101456.63;125230;1300;98037;-77
2022/11/11 05:45:44;;;;;;;32.60;16.30;;;;;;;8.60;89.43;101457.32;125166;1310;98002;-77
2022/11/11 05:49:17;;;;;;;20.30;11.00;;;;;;;8.64;89.23;101454.90;125362;1300;98756;-79
2022/11/11 05:52:49;;;;;;;18.40;10.20;;;;;;;8.66;89.02;101459.05;125291;1297;98002;-79
2022/11/11 05:56:14;;;;;;;17.10;8.50;;;;;;;8.65;89.33;101454.30;125331;1293;99278;-79
2022/11/11 05:59:38;;;;;;;15.70;8.90;;;;;;;8.65;89.16;101458.36;125283;1306;98112;-78
2022/11/11 06:03:06;;;;;;;14.10;8.70;;;;;;;8.68;89.23;101460.67;125219;1300;98050;-79
2022/11/11 06:06:31;;;;;;;14.30;9.90;;;;;;;8.73;89.32;101464.37;125113;1316;98020;-76
2022/11/11 06:10:29;;;;;;;16.50;10.00;;;;;;;8.79;89.11;101459.37;125153;1296;98006;-76
2022/11/11 06:13:41;;;;;;;15.00;10.10;;;;;;;8.82;89.02;101451.52;125115;1300;99100;-76
2022/11/11 06:17:06;;;;;;;16.50;9.90;;;;;;;8.81;88.97;101442.48;125203;1300;99141;-76
2022/11/11 06:20:34;;;;;;;15.90;9.50;;;;;;;8.80;89.08;101443.31;125217;1296;97999;-76
2022/11/11 06:23:58;;;;;;;12.90;7.80;;;;;;;8.81;89.12;101436.52;125268;1296;99084;-76
2022/11/11 06:27:22;;;;;;;14.60;9.20;;;;;;;8.83;89.13;101438.47;125129;1296;98101;-76
2022/11/11 06:30:47;;;;;;;16.50;9.40;;;;;;;8.90;89.23;101436.55;125151;1296;98119;-77
2022/11/11 06:34:11;;;;;;;16.90;11.60;;;;;;;8.97;89.08;101437.95;125179;1293;98001;-76
2022/11/11 06:37:36;;;;;;;18.10;11.70;;;;;;;9.01;88.87;101437.68;125130;1300;99135;-76
2022/11/11 06:41:00;;;;;;;23.40;14.80;;;;;;;9.02;88.92;101448.77;125179;1296;99169;-77
2022/11/11 06:44:24;;;;;;;18.10;10.70;;;;;;;9.02;89.13;101447.71;125186;1288;99164;-78
2022/11/11 06:47:48;;;;;;;29.20;15.00;;;;;;;9.03;89.02;101458.10;125137;1303;99061;-76
2022/11/11 06:51:14;;;;;;;17.60;9.80;;;;;;;9.09;89.05;101467.27;125218;1305;98076;-76
2022/11/11 06:54:38;;;;;;;18.60;10.60;;;;;;;9.16;88.82;101466.39;125127;1300;98357;-76
2022/11/11 06:58:10;;;;;;;22.70;14.10;;;;;;;9.22;88.80;101463.25;125120;1297;99166;-76
2022/11/11 07:01:34;;;;;;;16.80;10.70;;;;;;;9.27;88.85;101463.41;125144;1300;98021;-76
2022/11/11 07:04:58;;;;;;;39.10;18.60;;;;;;;9.32;88.60;101471.25;125156;1298;99084;-73
2022/11/11 07:08:23;;;;;;;18.80;10.80;;;;;;;9.34;88.42;101469.68;125122;1295;99190;-74
2022/11/11 07:11:48;;;;;;;14.70;10.00;;;;;;;9.38;88.71;101476.27;125205;1306;99112;-75
2022/11/11 07:15:13;;;;;;;17.40;10.00;;;;;;;9.45;88.53;101472.95;125248;1302;98034;-76
2022/11/11 07:18:37;;;;;;;18.00;11.40;;;;;;;9.53;88.33;101472.15;125294;1305;99204;-76
2022/11/11 07:22:01;;;;;;;16.40;10.00;;;;;;;9.61;88.42;101471.69;125289;1302;99272;-75
2022/11/11 07:25:25;;;;;;;15.00;10.20;;;;;;;9.67;88.22;101466.80;125370;1298;98066;-76
2022/11/11 07:28:50;;;;;;;16.90;10.40;;;;;;;9.71;87.80;101464.05;125224;1296;98050;-80
2022/11/11 07:32:16;;;;;;;25.80;13.30;;;;;;;9.70;87.77;101454.52;125379;1297;98010;-74
2022/11/11 07:35:40;;;;;;;22.40;11.80;;;;;;;9.64;87.73;101453.35;125276;1293;98014;-76
2022/11/11 07:39:04;;;;;;;18.70;9.70;;;;;;;9.61;87.60;101454.24;125218;1304;98041;-76
2022/11/11 07:42:29;;;;;;;17.50;10.50;;;;;;;9.67;87.74;101454.72;125065;1296;99071;-72
2022/11/11 07:45:53;;;;;;;20.10;12.80;;;;;;;9.74;87.87;101453.27;125177;1302;99186;-71
2022/11/11 07:49:17;;;;;;;17.20;11.00;;;;;;;9.81;87.70;101446.19;125120;1293;98178;-74
2022/11/11 07:52:47;;;;;;;18.20;11.00;;;;;;;9.89;87.32;101448.41;125083;1302;98016;-77
2022/11/11 07:56:12;;;;;;;17.20;10.80;;;;;;;9.96;87.28;101438.28;125176;1297;98042;-73
2022/11/11 07:59:36;;;;;;;204.50;65.50;;;;;;;10.00;87.61;101453.45;125126;1304;98691;-74
2022/11/11 08:03:00;;;;;;;25.50;13.50;;;;;;;10.02;87.33;101451.65;125172;1297;99058;-75
2022/11/11 08:06:24;;;;;;;19.30;8.20;;;;;;;10.07;87.50;101455.23;125257;1308;98781;-74
2022/11/11 08:09:48;;;;;;;18.00;10.70;;;;;;;10.14;87.20;101450.56;125398;1310;99152;-74
2022/11/11 08:16:55;;;;;;;15.90;10.60;;;;;;;10.34;87.16;101455.44;125227;1298;99168;-78
2022/11/11 08:20:19;;;;;;;16.20;11.10;;;;;;;10.38;86.69;101465.75;125176;1296;98055;-76
2022/11/11 08:23:44;;;;;;;26.60;15.50;;;;;;;10.44;87.13;101466.04;125220;1302;99060;-74
2022/11/11 08:27:09;;;;;;;19.10;12.20;;;;;;;10.48;87.01;101467.99;125479;1296;99126;-74
2022/11/11 08:30:33;;;;;;;13.90;9.10;;;;;;;10.49;86.49;101469.20;125152;1302;98696;-75
2022/11/11 08:33:57;;;;;;;14.30;9.90;;;;;;;10.50;86.81;101470.48;125265;1293;98023;-76
2022/11/11 08:37:22;;;;;;;12.50;8.50;;;;;;;10.60;86.90;101474.70;125390;1297;98100;-78
2022/11/11 08:40:46;;;;;;;14.50;11.20;;;;;;;10.73;86.77;101477.03;125119;1303;98783;-76
2022/11/11 08:44:11;;;;;;;11.80;9.10;;;;;;;10.87;86.69;101482.83;125103;1297;98053;-76
2022/11/11 08:47:35;;;;;;;18.00;11.40;;;;;;;11.00;86.59;101482.52;125171;1304;99063;-75
2022/11/11 08:51:00;;;;;;;16.00;9.90;;;;;;;11.07;86.34;101479.27;125144;1313;99193;-75
2022/11/11 08:54:25;;;;;;;17.60;11.00;;;;;;;11.15;85.95;101478.99;125150;1303;99058;-76
2022/11/11 08:57:56;;;;;;;13.70;8.70;;;;;;;11.17;85.99;101478.94;125189;1304;98698;-78
2022/11/11 09:01:21;;;;;;;15.90;9.60;;;;;;;11.20;86.20;101482.25;125241;1296;99166;-76
2022/11/11 09:04:46;;;;;;;15.20;9.50;;;;;;;11.29;85.71;101477.80;125312;1296;98128;-77
2022/11/11 09:08:10;;;;;;;14.80;9.10;;;;;;;11.39;85.90;101475.17;125430;1297;98135;-77
2022/11/11 09:11:35;;;;;;;16.50;10.80;;;;;;;11.49;85.64;101470.61;125209;1296;99212;-78
2022/11/11 09:15:00;;;;;;;16.80;10.70;;;;;;;11.58;85.46;101478.24;125199;1296;99177;-79
2022/11/11 09:18:24;;;;;;;13.70;8.80;;;;;;;11.66;85.51;101485.54;125100;1313;98339;-76
2022/11/11 09:21:50;;;;;;;14.90;8.80;;;;;;;11.70;85.55;101490.02;125058;1299;98153;-77
2022/11/11 09:25:14;;;;;;;12.60;8.60;;;;;;;11.71;85.12;101491.40;125036;1301;98768;-77
2022/11/11 09:28:38;;;;;;;15.70;8.80;;;;;;;11.68;85.27;101489.48;125047;1302;98007;-76
2022/11/11 09:32:03;;;;;;;13.70;8.10;;;;;;;11.70;85.36;101476.46;125136;1303;98019;-74
2022/11/11 09:35:27;;;;;;;16.60;8.70;;;;;;;11.76;85.27;101471.85;125213;1313;99066;-76
2022/11/11 09:38:51;;;;;;;15.00;8.40;;;;;;;11.83;84.78;101476.34;125129;1302;99183;-77
2022/11/11 09:42:30;;;;;;;16.40;10.80;;;;;;;11.88;84.89;101461.09;125304;1293;99117;-75
2022/11/11 09:46:09;;;;;;;15.70;8.30;;;;;;;11.92;84.43;101447.70;125266;1295;98013;-74
2022/11/11 09:49:58;;;;;;;15.80;8.70;;;;;;;11.90;84.04;101459.48;125287;1303;98801;-76
2022/11/11 09:53:29;;;;;;;13.60;8.50;;;;;;;11.96;84.63;101463.46;125251;1289;99173;-76
2022/11/11 09:56:54;;;;;;;14.90;8.60;;;;;;;12.00;84.47;101463.40;125136;1293;99140;-75
2022/11/11 10:00:21;;;;;;;12.00;7.70;;;;;;;12.04;84.44;101455.06;125153;1297;98021;-74
2022/11/11 10:03:51;;;;;;;13.90;7.50;;;;;;;12.10;84.47;101445.77;125119;1297;98671;-73
2022/11/11 10:07:24;;;;;;;17.30;9.70;;;;;;;12.18;84.26;101451.74;125076;1296;98036;-76
2022/11/11 10:10:50;;;;;;;16.60;9.70;;;;;;;12.26;84.06;101466.73;125170;1295;98652;-80
2022/11/11 10:14:16;;;;;;;11.80;7.90;;;;;;;12.29;83.91;101463.98;125109;1302;98015;-73
2022/11/11 10:17:59;;;;;;;14.00;7.80;;;;;;;12.30;83.73;101455.52;125275;1296;98018;-76
2022/11/11 10:21:24;;;;;;;;;;;;;;;12.29;83.44;101455.37;125169;1303;98168;-77
2022/11/11 10:24:59;;;;;;;10.50;6.20;;;;;;;12.26;83.32;101449.98;125092;1289;98024;-74
2022/11/11 10:28:28;;;;;;;10.00;6.40;;;;;;;12.22;83.48;101442.69;125083;1295;98038;-76
2022/11/11 10:32:01;;;;;;;10.20;5.50;;;;;;;12.18;83.43;101446.52;125191;1302;98143;-76
2022/11/11 10:35:27;;;;;;;9.90;6.30;;;;;;;12.17;83.13;101434.29;125064;1302;99281;-73
2022/11/11 10:38:58;;;;;;;12.40;6.90;;;;;;;12.22;83.49;101433.56;125214;1303;98694;-76
2022/11/11 10:42:23;;;;;;;14.10;6.60;;;;;;;12.28;83.17;101427.50;125177;1293;98005;-76
2022/11/11 10:45:55;;;;;;;12.40;7.00;;;;;;;12.30;83.34;101428.56;125181;1296;99231;-76
2022/11/11 10:49:24;;;;;;;10.40;6.70;;;;;;;12.30;82.57;101431.55;125340;1296;98740;-76
2022/11/11 10:52:57;;;;;;;11.80;6.30;;;;;;;12.27;82.78;101428.48;125345;1295;98061;-75
2022/11/11 10:56:28;;;;;;;12.50;7.50;;;;;;;12.24;82.48;101427.83;125227;1297;98014;-76
2022/11/11 11:00:00;;;;;;;10.70;7.40;;;;;;;12.22;82.76;101422.33;125272;1301;99164;-76
2022/11/11 11:03:30;;;;;;;11.40;7.30;;;;;;;12.23;82.84;101419.18;125196;1290;98775;-76
2022/11/11 11:06:57;;;;;;;10.90;6.10;;;;;;;12.25;82.68;101423.46;125212;1303;98104;-76
2022/11/11 11:10:26;;;;;;;11.10;5.90;;;;;;;12.28;82.67;101415.88;125244;1290;99202;-76
2022/11/11 11:13:55;;;;;;;11.90;6.20;;;;;;;12.36;82.62;101415.20;125425;1297;98067;-77
2022/11/11 11:17:27;;;;;;;12.30;7.60;;;;;;;12.40;82.27;101419.96;125401;1296;99227;-77
2022/11/11 11:20:56;;;;;;;;;;;;;;;12.41;82.19;101417.55;124994;1296;98035;-76
2022/11/11 11:24:26;;;;;;;14.40;7.30;;;;;;;12.41;81.99;101417.77;124998;1299;98020;-76
2022/11/11 11:27:52;;;;;;;10.20;6.50;;;;;;;12.41;82.06;101411.71;124908;1309;98022;-77
2022/11/11 11:31:17;;;;;;;11.40;6.60;;;;;;;12.44;82.00;101406.42;124939;1306;98056;-74
2022/11/11 11:34:50;;;;;;;11.40;6.90;;;;;;;12.48;81.97;101399.84;125058;1288;98036;-76
2022/11/11 11:38:15;;;;;;;12.00;7.10;;;;;;;12.46;81.86;101391.25;125032;1302;99164;-76
2022/11/11 11:41:41;;;;;;;14.80;7.20;;;;;;;12.41;81.44;101390.77;124931;1312;98161;-75
2022/11/11 11:45:28;;;;;;;13.30;6.70;;;;;;;12.36;81.72;101391.75;125128;1306;98789;-75
2022/11/11 11:49:07;;;;;;;10.20;6.50;;;;;;;12.35;81.79;101392.39;125023;1304;98005;-76
2022/11/11 11:52:43;;;;;;;11.40;6.90;;;;;;;12.38;81.88;101390.92;125039;1296;98171;-76
2022/11/11 11:56:16;;;;;;;13.30;7.30;;;;;;;12.42;81.45;101388.36;125195;1298;98052;-75
2022/11/11 11:59:46;;;;;;;12.80;6.80;;;;;;;12.39;81.38;101387.42;125151;1306;98111;-75
2022/11/11 12:03:34;;;;;;;11.70;7.10;;;;;;;12.40;81.53;101388.64;125240;1297;99061;-79
2022/11/11 12:07:05;;;;;;;10.80;6.70;;;;;;;12.39;81.24;101383.51;125187;1297;98002;-75
2022/11/11 12:10:44;;;;;;;11.30;6.40;;;;;;;12.37;81.28;101382.38;125081;1297;99197;-77
2022/11/11 12:14:28;;;;;;;12.50;6.30;;;;;;;12.33;81.22;101383.52;125010;1306;98084;-76
2022/11/11 12:18:08;;;;;;;15.10;6.60;;;;;;;12.26;81.03;101389.10;124966;1304;98052;-77
2022/11/11 12:21:41;;;;;;;15.80;8.90;;;;;;;12.21;81.32;101383.33;124951;1296;98111;-76
2022/11/11 12:25:17;;;;;;;11.90;6.60;;;;;;;12.24;81.32;101380.23;124844;1299;98630;-78
2022/11/11 12:28:57;;;;;;;13.50;7.60;;;;;;;12.23;81.03;101382.92;125090;1300;98816;-76
2022/11/11 12:32:41;;;;;;;15.70;7.90;;;;;;;12.20;81.05;101382.89;124965;1296;98049;-76
2022/11/11 12:36:13;;;;;;;14.00;7.70;;;;;;;12.16;81.10;101387.16;124975;1304;98836;-79
2022/11/11 12:40:01;;;;;;;;;;;;;;;12.10;81.03;101404.96;125487;1296;98055;-77
2022/11/11 12:43:34;;;;;;;10.10;6.70;;;;;;;12.02;80.90;101408.17;125210;1296;98703;-75
2022/11/11 12:47:16;;;;;;;12.40;7.70;;;;;;;11.95;81.12;101410.16;125108;1297;98037;-76
2022/11/11 12:50:47;;;;;;;6.90;3.30;;;;;;;11.92;81.19;101401.52;125150;1299;98027;-79
2022/11/11 12:54:23;;;;;;;10.20;6.40;;;;;;;11.95;81.25;101403.40;125424;1305;98037;-79
2022/11/11 12:58:03;;;;;;;12.40;8.30;;;;;;;11.99;81.09;101404.11;125072;1296;98110;-77
2022/11/11 13:01:46;;;;;;;14.70;8.60;;;;;;;12.05;80.96;101403.42;125510;1306;98055;-77
2022/11/11 13:05:16;;;;;;;11.10;6.90;;;;;;;12.08;80.86;101411.41;125600;1297;98059;-78
2022/11/11 13:09:15;;;;;;;10.70;6.30;;;;;;;12.09;80.67;101417.35;125089;1296;98101;-79
2022/11/11 13:12:46;;;;;;;12.90;6.80;;;;;;;12.10;80.61;101414.23;125276;1297;99185;-78
2022/11/11 13:16:11;;;;;;;10.10;7.10;;;;;;;12.08;80.52;101417.96;125219;1296;98157;-77
2022/11/11 13:19:40;;;;;;;9.70;5.70;;;;;;;12.07;80.55;101416.66;125020;1296;98698;-76
2022/11/11 13:23:08;;;;;;;14.10;6.40;;;;;;;12.02;80.44;101415.63;125478;1299;98018;-79
2022/11/11 13:26:38;;;;;;;11.90;6.50;;;;;;;11.98;80.43;101415.31;125341;1289;98107;-86
2022/11/11 13:30:24;;;;;;;11.10;6.60;;;;;;;11.97;80.57;101412.20;125428;1305;99071;-78
2022/11/11 13:33:52;;;;;;;9.90;5.60;;;;;;;11.97;79.99;101405.02;125256;1313;98784;-77
2022/11/11 13:37:27;;;;;;;15.80;8.40;;;;;;;11.95;80.31;101400.17;125140;1297;98033;-79
2022/11/11 13:40:54;;;;;;;11.90;6.50;;;;;;;11.94;80.07;101403.17;125188;1306;98413;-77
2022/11/11 13:44:23;;;;;;;11.60;6.30;;;;;;;11.88;79.81;101404.58;125226;1305;99201;-76
2022/11/11 13:47:49;;;;;;;10.90;6.00;;;;;;;11.84;80.01;101400.32;125163;1289;99137;-77
2022/11/11 13:51:34;;;;;;;11.70;6.00;;;;;;;11.77;79.44;101399.27;125291;1299;98008;-78
2022/11/11 13:55:02;;;;;;;9.20;5.30;;;;;;;11.67;79.61;101406.84;125043;1307;98493;-81
2022/11/11 13:58:30;;;;;;;10.00;5.60;;;;;;;11.59;79.39;101402.54;125174;1305;99168;-79
2022/11/11 14:02:26;;;;;;;11.20;5.60;;;;;;;11.53;79.71;101406.48;125147;1299;98037;-80
2022/11/11 14:06:27;;;;;;;13.00;6.10;;;;;;;11.48;79.65;101407.30;125045;1304;98470;-80
2022/11/11 14:10:02;;;;;;;14.90;7.10;;;;;;;11.47;79.59;101406.83;125324;1299;98047;-82
2022/11/11 14:13:41;;;;;;;13.20;6.90;;;;;;;11.48;79.58;101407.48;125678;1304;98016;-81
2022/11/11 14:17:13;;;;;;;13.50;7.20;;;;;;;11.47;79.64;101410.92;125431;1304;99090;-83
2022/11/11 14:20:42;;;;;;;15.80;7.00;;;;;;;11.45;79.45;101404.28;125548;1296;99208;-79
2022/11/11 14:24:07;;;;;;;17.10;12.80;;;;;;;11.41;79.40;101401.05;125572;1305;98173;-84
2022/11/11 14:27:33;;;;;;;13.50;6.70;;;;;;;11.35;79.40;101405.62;125422;1297;98017;-81
2022/11/11 14:31:20;;;;;;;12.80;6.80;;;;;;;11.28;79.35;101419.10;125291;1297;98655;-79
2022/11/11 14:34:58;;;;;;;12.10;7.80;;;;;;;11.23;79.62;101415.95;125432;1296;99215;-79
2022/11/11 14:38:33;;;;;;;13.60;7.20;;;;;;;11.18;79.81;101414.59;125515;1297;98028;-80
2022/11/11 14:41:57;;;;;;;10.60;5.60;;;;;;;11.14;79.68;101420.23;125508;1289;98210;-81
2022/11/11 14:45:59;;;;;;;10.40;6.30;;;;;;;11.18;79.96;101416.73;125337;1306;99069;-81
2022/11/11 14:49:46;;;;;;;12.90;7.60;;;;;;;11.22;79.81;101417.81;125277;1298;99179;-80
2022/11/11 14:53:16;;;;;;;29.70;20.60;;;;;;;11.20;79.44;101416.58;125468;1299;98118;-82
2022/11/11 14:56:41;;;;;;;16.50;9.40;;;;;;;11.16;79.80;101424.89;125494;1299;98002;-80
2022/11/11 15:00:11;;;;;;;17.60;11.10;;;;;;;11.12;79.88;101421.30;125453;1306;98425;-82
2022/11/11 15:03:40;;;;;;;15.60;9.20;;;;;;;11.10;79.70;101417.74;125383;1289;98127;-81
2022/11/11 15:07:09;;;;;;;41.00;21.60;;;;;;;11.06;79.60;101421.84;125212;1304;98742;-76
2022/11/11 15:11:02;;;;;;;20.00;11.10;;;;;;;10.95;79.70;101428.02;125233;1297;98141;-79
2022/11/11 15:14:35;;;;;;;17.50;9.50;;;;;;;10.92;80.09;101439.20;125064;1289;98010;-77
2022/11/11 15:18:09;;;;;;;13.90;9.90;;;;;;;10.92;80.07;101445.79;125213;1298;98005;-79
2022/11/11 15:21:36;;;;;;;17.80;10.60;;;;;;;10.91;79.97;101450.14;125226;1306;99187;-77
2022/11/11 15:25:17;;;;;;;13.50;7.50;;;;;;;10.88;79.75;101456.91;125317;1299;98128;-76
2022/11/11 15:29:00;;;;;;;14.50;9.20;;;;;;;10.84;80.02;101458.35;125556;1297;98109;-77
2022/11/11 15:32:33;;;;;;;15.00;8.80;;;;;;;10.78;79.83;101462.17;125289;1302;98096;-79
2022/11/11 15:36:03;;;;;;;23.80;15.00;;;;;;;10.71;80.16;101461.15;125253;1296;98445;-80
2022/11/11 15:39:38;;;;;;;13.50;8.60;;;;;;;10.72;80.04;101465.14;125509;1306;98102;-80
2022/11/11 15:43:04;;;;;;;15.40;7.60;;;;;;;10.71;79.97;101470.08;125270;1306;98020;-77
2022/11/11 15:46:30;;;;;;;15.10;9.40;;;;;;;10.68;80.27;101472.65;125094;1306;98646;-81
2022/11/11 15:49:55;;;;;;;17.20;9.80;;;;;;;10.67;80.35;101469.70;125062;1306;98629;-81
2022/11/11 15:53:25;;;;;;;20.80;11.80;;;;;;;10.63;80.44;101471.45;125036;1299;98005;-79
2022/11/11 15:56:52;;;;;;;19.20;10.60;;;;;;;10.56;80.83;101472.50;125192;1297;98118;-81
2022/11/11 16:00:28;;;;;;;16.40;9.50;;;;;;;10.55;80.89;101474.96;125393;1306;98055;-82
2022/11/11 16:03:53;;;;;;;17.80;9.90;;;;;;;10.51;80.83;101476.46;125303;1299;99161;-79
2022/11/11 16:07:23;;;;;;;18.70;13.00;;;;;;;10.51;80.69;101481.45;125246;1302;99175;-77
2022/11/11 16:10:54;;;;;;;18.10;10.70;;;;;;;10.51;80.83;101494.47;125193;1297;98805;-79
2022/11/11 16:14:39;;;;;;;15.70;10.80;;;;;;;10.46;81.03;101499.27;125126;1306;98006;-79
2022/11/11 16:18:10;;;;;;;14.30;10.90;;;;;;;10.43;81.17;101501.33;125370;1297;99202;-78
2022/11/11 16:21:42;;;;;;;13.70;8.60;;;;;;;10.41;81.18;101499.83;125121;1297;98221;-81
2022/11/11 16:25:14;;;;;;;14.40;8.60;;;;;;;10.39;81.04;101489.56;125274;1299;98007;-81
2022/11/11 16:28:42;;;;;;;16.00;10.70;;;;;;;10.37;81.16;101486.17;125379;1304;98045;-80
2022/11/11 16:32:32;;;;;;;27.20;14.40;;;;;;;10.38;81.57;101483.02;125233;1313;98665;-80
2022/11/11 16:36:09;;;;;;;28.20;18.40;;;;;;;10.43;81.30;101476.58;125239;1289;99181;-81
2022/11/11 16:39:34;;;;;;;20.00;13.80;;;;;;;10.47;81.50;101483.40;125203;1306;99155;-80
2022/11/11 16:43:20;;;;;;;22.80;14.40;;;;;;;10.45;81.29;101485.84;125261;1312;98111;-82
2022/11/11 16:46:44;;;;;;;18.20;10.40;;;;;;;10.41;81.61;101492.02;125388;1304;98134;-82
2022/11/11 16:50:12;;;;;;;12.90;8.50;;;;;;;10.40;81.68;101494.42;125208;1300;98791;-82
2022/11/11 16:53:39;;;;;;;25.60;15.60;;;;;;;10.42;81.47;101495.89;125437;1296;98057;-81
2022/11/11 16:57:03;;;;;;;32.20;18.10;;;;;;;10.45;81.67;101497.59;125385;1305;99167;-79
2022/11/11 17:00:29;;;;;;;253.10;99.20;;;;;;;10.48;81.69;101498.47;125171;1302;98098;-79
2022/11/11 17:03:59;;;;;;;197.60;78.30;;;;;;;10.47;81.46;101491.89;125139;1305;98780;-79
2022/11/11 17:07:34;;;;;;;83.20;34.90;;;;;;;10.50;81.62;101493.64;125295;1312;98610;-79